createdAt,value
2023-01-17T00:00:38.555Z,39.33
2023-01-17T00:03:05.580Z,37.57
2023-01-17T00:05:51.125Z,37.80
2023-01-17T00:08:37.241Z,44.53
2023-01-17T00:11:04.533Z,41.20
2023-01-17T00:13:32.244Z,39.50
2023-01-17T00:15:59.991Z,36.90
2023-01-17T00:18:28.701Z,39.43
2023-01-17T00:21:14.302Z,42.83
2023-01-17T00:24:00.115Z,39.97
2023-01-17T00:26:27.745Z,34.07
2023-01-17T00:28:54.770Z,38.33
2023-01-17T00:31:21.961Z,34.70
2023-01-17T00:33:49.297Z,35.97
2023-01-17T00:36:16.662Z,37.33
2023-01-17T00:38:44.217Z,38.10
2023-01-17T00:41:12.057Z,39.33
2023-01-17T00:43:58.165Z,34.80
2023-01-17T00:46:44.222Z,38.23
2023-01-17T00:49:30.064Z,41.53
2023-01-17T00:52:16.322Z,36.47
2023-01-17T00:55:01.713Z,33.77
2023-01-17T00:57:47.137Z,34.10
2023-01-17T01:00:32.907Z,36.30
2023-01-17T01:03:18.363Z,30.57
2023-01-17T01:06:03.986Z,32.73
2023-01-17T01:08:49.479Z,23.83
2023-01-17T01:11:36.414Z,27.47
2023-01-17T01:14:22.588Z,23.23
2023-01-17T01:17:08.349Z,23.07
2023-01-17T01:19:53.483Z,21.77
2023-01-17T01:22:38.993Z,22.27
2023-01-17T01:25:24.439Z,18.80
2023-01-17T01:28:10.444Z,19.33
2023-01-17T01:30:55.945Z,21.40
2023-01-17T01:33:22.817Z,17.73
2023-01-17T01:35:54.161Z,20.67
2023-01-17T01:38:22.377Z,16.57
2023-01-17T01:40:51.035Z,16.40
2023-01-17T01:43:37.846Z,17.57
2023-01-17T01:46:05.113Z,15.70
2023-01-17T01:48:36.752Z,10.60
2023-01-17T01:51:05.594Z,10.17
2023-01-17T01:53:34.164Z,12.07
2023-01-17T01:56:01.358Z,9.53
2023-01-17T01:58:28.808Z,13.27
2023-01-17T02:00:55.745Z,8.90
2023-01-17T02:03:30.623Z,12.50
2023-01-17T02:06:01.220Z,9.50
2023-01-17T02:08:28.359Z,10.90
2023-01-17T02:10:55.588Z,11.53
2023-01-17T02:13:22.451Z,9.20
2023-01-17T02:15:57.987Z,7.87
2023-01-17T02:18:27.837Z,10.87
2023-01-17T02:21:09.731Z,7.27
2023-01-17T02:23:55.128Z,9.47
2023-01-17T02:26:24.785Z,9.50
2023-01-17T02:29:14.651Z,9.03
2023-01-17T02:31:48.490Z,7.73
2023-01-17T02:34:27.679Z,8.27
2023-01-17T02:37:13.302Z,7.73
2023-01-17T02:39:43.818Z,8.57
2023-01-17T02:42:14.792Z,8.13
2023-01-17T02:44:42.363Z,7.27
2023-01-17T02:47:25.632Z,6.10
2023-01-17T02:49:53.935Z,7.23
2023-01-17T02:52:32.894Z,6.23
2023-01-17T02:55:02.495Z,7.50
2023-01-17T02:57:42.903Z,6.60
2023-01-17T03:00:18.587Z,8.27
2023-01-17T03:03:04.202Z,8.40
2023-01-17T03:05:37.552Z,6.10
2023-01-17T03:08:05.550Z,5.63
2023-01-17T03:10:33.752Z,8.03
2023-01-17T03:13:01.214Z,8.27
2023-01-17T03:15:28.128Z,8.60
2023-01-17T03:17:57.079Z,7.00
2023-01-17T03:20:23.887Z,8.33
2023-01-17T03:22:50.772Z,6.10
2023-01-17T03:25:17.868Z,7.17
2023-01-17T03:27:44.767Z,6.33
2023-01-17T03:30:11.908Z,5.40
2023-01-17T03:32:38.814Z,7.27
2023-01-17T03:35:06.017Z,6.33
2023-01-17T03:37:32.795Z,6.53
2023-01-17T03:39:59.575Z,7.47
2023-01-17T03:42:26.391Z,6.83
2023-01-17T03:44:53.207Z,7.73
2023-01-17T03:47:19.952Z,6.77
2023-01-17T03:49:46.906Z,6.27
2023-01-17T03:52:13.702Z,9.37
2023-01-17T03:54:40.976Z,6.60
2023-01-17T03:57:09.441Z,7.50
2023-01-17T03:59:36.288Z,9.97
2023-01-17T04:02:03.261Z,7.03
2023-01-17T04:04:30.248Z,7.57
2023-01-17T04:06:57.028Z,6.97
2023-01-17T04:09:23.947Z,6.77
2023-01-17T04:11:51.125Z,6.77
2023-01-17T04:14:18.059Z,7.47
2023-01-17T04:16:44.962Z,7.97
2023-01-17T04:19:12.902Z,7.23
2023-01-17T04:21:39.671Z,7.70
2023-01-17T04:24:06.781Z,8.43
2023-01-17T04:26:33.607Z,8.20
2023-01-17T04:29:00.422Z,8.00
2023-01-17T04:31:27.276Z,8.30
2023-01-17T04:33:54.140Z,8.70
2023-01-17T04:36:20.965Z,8.17
2023-01-17T04:38:47.920Z,6.73
2023-01-17T04:41:14.749Z,6.20
2023-01-17T04:43:41.562Z,8.47
2023-01-17T04:46:11.127Z,8.17
2023-01-17T04:48:38.432Z,7.20
2023-01-17T04:51:05.947Z,5.47
2023-01-17T04:53:32.812Z,7.00
2023-01-17T04:55:59.621Z,7.10
2023-01-17T04:58:27.183Z,7.67
2023-01-17T05:00:55.047Z,5.93
2023-01-17T05:03:22.497Z,8.17
2023-01-17T05:05:49.610Z,8.77
2023-01-17T05:08:16.432Z,7.73
2023-01-17T05:10:45.473Z,7.00
2023-01-17T05:13:12.211Z,8.97
2023-01-17T05:15:39.313Z,7.73
2023-01-17T05:18:08.797Z,7.23
2023-01-17T05:20:35.856Z,7.23
2023-01-17T05:23:02.943Z,8.03
2023-01-17T05:25:30.923Z,11.43
2023-01-17T05:28:00.155Z,9.67
2023-01-17T05:30:27.531Z,8.77
2023-01-17T05:32:55.585Z,7.03
2023-01-17T05:35:24.060Z,7.43
2023-01-17T05:37:51.229Z,8.07
2023-01-17T05:40:21.947Z,10.93
2023-01-17T05:42:49.592Z,9.77
2023-01-17T05:45:19.469Z,10.90
2023-01-17T05:47:47.236Z,10.20
2023-01-17T05:50:16.064Z,9.77
2023-01-17T05:52:48.942Z,9.43
2023-01-17T05:55:15.799Z,10.37
2023-01-17T05:57:42.531Z,10.23
2023-01-17T06:00:09.788Z,10.73
2023-01-17T06:02:36.625Z,10.43
2023-01-17T06:05:03.694Z,9.13
2023-01-17T06:07:30.481Z,10.40
2023-01-17T06:09:57.415Z,8.93
2023-01-17T06:12:24.153Z,10.23
2023-01-17T06:14:50.920Z,10.50
2023-01-17T06:17:17.840Z,9.47
2023-01-17T06:19:45.664Z,9.70
2023-01-17T06:22:12.535Z,8.13
2023-01-17T06:24:39.352Z,9.40
2023-01-17T06:27:08.467Z,9.57
2023-01-17T06:29:35.207Z,9.77
2023-01-17T06:32:02.020Z,9.00
2023-01-17T06:34:29.141Z,12.87
2023-01-17T06:36:56.112Z,9.57
2023-01-17T06:39:22.887Z,9.13
2023-01-17T06:41:49.800Z,9.17
2023-01-17T06:44:16.570Z,9.53
2023-01-17T06:46:43.599Z,9.83
2023-01-17T06:49:10.499Z,11.43
2023-01-17T06:51:37.929Z,10.43
2023-01-17T06:54:04.766Z,12.10
2023-01-17T06:56:32.334Z,11.23
2023-01-17T06:58:59.269Z,10.37
2023-01-17T07:01:26.209Z,10.00
2023-01-17T07:03:53.258Z,10.13
2023-01-17T07:06:20.240Z,10.60
2023-01-17T07:08:47.733Z,11.53
2023-01-17T07:11:14.697Z,9.80
2023-01-17T07:13:41.546Z,9.10
2023-01-17T07:16:08.525Z,10.53
2023-01-17T07:18:35.583Z,12.40
2023-01-17T07:21:02.360Z,9.07
2023-01-17T07:23:29.287Z,9.13
2023-01-17T07:26:00.000Z,11.03
2023-01-17T07:28:27.760Z,10.67
2023-01-17T07:30:54.876Z,10.47
2023-01-17T07:33:21.965Z,12.83
2023-01-17T07:35:48.975Z,11.67
2023-01-17T07:38:17.125Z,11.27
2023-01-17T07:40:44.252Z,11.33
2023-01-17T07:43:14.370Z,10.27
2023-01-17T07:45:46.503Z,9.87
2023-01-17T07:48:13.904Z,12.07
2023-01-17T07:50:40.664Z,11.93
2023-01-17T07:53:07.479Z,10.87
2023-01-17T07:55:34.356Z,10.30
2023-01-17T07:58:02.993Z,13.10
2023-01-17T08:00:30.323Z,12.37
2023-01-17T08:02:58.183Z,12.63
2023-01-17T08:05:25.303Z,12.67
2023-01-17T08:07:52.304Z,10.23
2023-01-17T08:10:19.226Z,11.70
2023-01-17T08:12:47.120Z,11.10
2023-01-17T08:15:14.837Z,10.93
2023-01-17T08:17:48.868Z,13.10
2023-01-17T08:20:16.643Z,10.87
2023-01-17T08:22:43.427Z,11.40
2023-01-17T08:25:10.407Z,11.13
2023-01-17T08:27:37.273Z,13.00
2023-01-17T08:30:04.504Z,12.70
2023-01-17T08:32:31.319Z,10.77
2023-01-17T08:34:58.104Z,11.80
2023-01-17T08:37:24.958Z,11.77
2023-01-17T08:39:51.706Z,15.53
2023-01-17T08:42:18.747Z,12.93
2023-01-17T08:44:45.491Z,12.97
2023-01-17T08:47:12.290Z,14.20
2023-01-17T08:49:39.156Z,12.60
2023-01-17T08:52:06.119Z,13.60
2023-01-17T08:54:33.177Z,12.40
2023-01-17T08:56:59.989Z,15.13
2023-01-17T08:59:26.814Z,13.10
2023-01-17T09:01:55.551Z,14.03
2023-01-17T09:04:22.577Z,15.33
2023-01-17T09:06:49.394Z,12.00
2023-01-17T09:09:16.756Z,12.40
2023-01-17T09:11:43.613Z,12.70
2023-01-17T09:14:11.900Z,13.30
2023-01-17T09:16:38.815Z,14.40
2023-01-17T09:19:05.712Z,14.40
2023-01-17T09:21:32.570Z,13.83
2023-01-17T09:23:59.411Z,12.47
2023-01-17T09:26:27.425Z,11.80
2023-01-17T09:28:54.441Z,13.33
2023-01-17T09:31:21.717Z,14.47
2023-01-17T09:33:49.869Z,14.43
2023-01-17T09:36:16.843Z,13.27
2023-01-17T09:38:44.439Z,12.77
2023-01-17T09:41:22.296Z,11.67
2023-01-17T09:43:54.462Z,16.07
2023-01-17T09:46:24.430Z,13.67
2023-01-17T09:48:56.216Z,12.37
2023-01-17T09:51:24.537Z,17.50
2023-01-17T09:53:52.164Z,15.83
2023-01-17T09:56:28.011Z,15.63
2023-01-17T09:58:57.585Z,11.97
2023-01-17T10:01:24.619Z,13.03
2023-01-17T10:04:03.729Z,12.80
2023-01-17T10:06:36.819Z,13.17
2023-01-17T10:09:04.006Z,14.70
2023-01-17T10:11:38.011Z,13.00
2023-01-17T10:14:14.078Z,11.50
2023-01-17T10:16:59.726Z,14.33
2023-01-17T10:19:35.830Z,12.93
2023-01-17T10:22:05.983Z,12.00
2023-01-17T10:24:47.466Z,12.93
2023-01-17T10:27:40.659Z,14.07
2023-01-17T10:30:36.436Z,12.67
2023-01-17T10:33:11.304Z,14.10
2023-01-17T10:35:42.479Z,14.70
2023-01-17T10:38:12.157Z,11.10
2023-01-17T10:40:41.104Z,12.43
2023-01-17T10:43:18.451Z,11.40
2023-01-17T10:45:51.719Z,14.47
2023-01-17T10:48:37.300Z,12.50
2023-01-17T10:51:16.377Z,10.70
2023-01-17T10:53:49.382Z,9.87
2023-01-17T10:56:17.446Z,10.57
2023-01-17T10:58:44.252Z,11.27
2023-01-17T11:01:15.773Z,10.90
2023-01-17T11:03:45.063Z,8.90
2023-01-17T11:06:22.284Z,8.53
2023-01-17T11:08:56.629Z,9.93
2023-01-17T11:11:24.885Z,9.30
2023-01-17T11:13:53.478Z,9.33
2023-01-17T11:16:27.350Z,13.23
2023-01-17T11:19:13.327Z,8.57
2023-01-17T11:21:50.589Z,8.93
2023-01-17T11:24:19.931Z,14.40
2023-01-17T11:26:47.699Z,8.53
2023-01-17T11:29:14.428Z,9.93
2023-01-17T11:31:41.344Z,7.80
2023-01-17T11:34:15.490Z,6.87
2023-01-17T11:36:42.613Z,5.83
2023-01-17T11:39:18.140Z,5.77
2023-01-17T11:41:45.697Z,7.03
2023-01-17T11:44:29.681Z,4.60
2023-01-17T11:47:14.646Z,7.20
2023-01-17T11:49:42.955Z,3.27
2023-01-17T11:52:10.576Z,4.97
2023-01-17T11:54:42.683Z,3.40
2023-01-17T11:57:29.779Z,3.23
2023-01-17T12:00:14.787Z,2.90
2023-01-17T12:02:41.659Z,5.37
2023-01-17T12:05:08.528Z,5.83
2023-01-17T12:07:38.570Z,6.13
2023-01-17T12:10:32.894Z,7.87
2023-01-17T12:13:44.435Z,7.73
2023-01-17T12:16:32.544Z,8.67
2023-01-17T12:19:18.748Z,9.40
2023-01-17T12:22:01.376Z,12.63
2023-01-17T12:24:40.703Z,8.60
2023-01-17T12:27:07.557Z,8.40
2023-01-17T12:29:53.018Z,9.03
2023-01-17T12:32:36.174Z,9.93
2023-01-17T12:35:12.450Z,12.03
2023-01-17T12:37:42.086Z,8.23
2023-01-17T12:40:14.929Z,8.70
2023-01-17T12:42:44.641Z,9.20
2023-01-17T12:45:20.412Z,9.33
2023-01-17T12:47:49.436Z,5.63
2023-01-17T12:50:20.608Z,6.30
2023-01-17T12:53:00.128Z,8.23
2023-01-17T12:55:36.003Z,5.23
2023-01-17T12:58:05.567Z,6.83
2023-01-17T13:00:35.792Z,6.37
2023-01-17T13:03:08.747Z,6.93
2023-01-17T13:05:36.821Z,6.47
2023-01-17T13:08:09.752Z,7.37
2023-01-17T13:10:52.213Z,6.43
2023-01-17T13:13:29.156Z,11.27
2023-01-17T13:15:58.535Z,9.40
2023-01-17T13:18:27.417Z,9.40
2023-01-17T13:20:58.085Z,7.80
2023-01-17T13:23:38.610Z,11.50
2023-01-17T13:26:10.345Z,8.63
2023-01-17T13:28:50.573Z,7.77
2023-01-17T13:31:20.365Z,8.30
2023-01-17T13:34:05.748Z,6.87
2023-01-17T13:36:51.240Z,6.80
2023-01-17T13:39:36.796Z,6.63
2023-01-17T13:42:03.604Z,7.47
2023-01-17T13:44:32.164Z,8.10
2023-01-17T13:47:23.760Z,7.63
2023-01-17T13:49:51.719Z,7.97
2023-01-17T13:52:21.212Z,8.17
2023-01-17T13:54:49.803Z,6.13
2023-01-17T13:57:33.049Z,7.53
2023-01-17T14:00:15.997Z,4.87
2023-01-17T14:02:43.325Z,6.63
2023-01-17T14:05:15.294Z,4.53
2023-01-17T14:07:42.179Z,7.90
2023-01-17T14:10:21.152Z,5.73
2023-01-17T14:12:48.129Z,5.76
2023-01-17T14:15:22.770Z,5.17
2023-01-17T14:17:52.690Z,5.13
2023-01-17T14:20:25.544Z,5.13
2023-01-17T14:23:00.541Z,5.60
2023-01-17T14:25:31.701Z,8.87
2023-01-17T14:28:00.325Z,4.37
2023-01-17T14:30:29.136Z,6.83
2023-01-17T14:32:58.675Z,6.93
2023-01-17T14:35:27.972Z,4.77
2023-01-17T14:37:54.764Z,5.73
2023-01-17T14:40:26.171Z,5.87
2023-01-17T14:42:59.636Z,5.50
2023-01-17T14:45:28.969Z,6.17
2023-01-17T14:47:57.464Z,6.77
2023-01-17T14:50:26.027Z,6.50
2023-01-17T14:53:11.692Z,5.33
2023-01-17T14:55:47.918Z,7.47
2023-01-17T14:58:34.486Z,7.50
2023-01-17T15:01:10.937Z,4.73
2023-01-17T15:03:45.774Z,9.53
2023-01-17T15:06:16.161Z,8.27
2023-01-17T15:08:43.213Z,5.80
2023-01-17T15:11:16.082Z,6.13
2023-01-17T15:13:45.359Z,7.83
2023-01-17T15:16:18.594Z,4.17
2023-01-17T15:18:45.411Z,9.00
2023-01-17T15:21:14.760Z,6.13
2023-01-17T15:23:46.093Z,8.60
2023-01-17T15:26:14.353Z,9.67
2023-01-17T15:28:41.414Z,4.60
2023-01-17T15:31:10.490Z,4.97
2023-01-17T15:33:39.260Z,5.80
2023-01-17T15:36:16.464Z,5.40
2023-01-17T15:38:49.572Z,8.00
2023-01-17T15:41:17.388Z,7.37
2023-01-17T15:43:45.233Z,6.00
2023-01-17T15:46:44.281Z,14.73
2023-01-17T15:49:17.827Z,8.83
2023-01-17T15:51:47.256Z,8.30
2023-01-17T15:54:24.407Z,7.77
2023-01-17T15:57:05.380Z,6.13
2023-01-17T15:59:51.163Z,8.63
2023-01-17T16:02:57.970Z,9.90
2023-01-17T16:05:24.940Z,7.10
2023-01-17T16:07:51.674Z,8.47
2023-01-17T16:10:19.745Z,8.13
2023-01-17T16:12:47.653Z,7.40
2023-01-17T16:15:16.355Z,11.23
2023-01-17T16:17:48.967Z,9.30
2023-01-17T16:20:22.267Z,9.87
2023-01-17T16:22:49.837Z,9.27
2023-01-17T16:25:18.343Z,10.00
2023-01-17T16:27:45.308Z,10.30
2023-01-17T16:30:16.787Z,7.87
2023-01-17T16:32:50.447Z,8.57
2023-01-17T16:35:21.110Z,8.93
2023-01-17T16:37:52.243Z,8.20
2023-01-17T16:40:20.307Z,9.80
2023-01-17T16:42:47.364Z,8.47
2023-01-17T16:45:14.302Z,6.50
2023-01-17T16:47:42.116Z,11.60
2023-01-17T16:50:10.161Z,10.87
2023-01-17T16:52:37.080Z,12.77
2023-01-17T16:55:05.322Z,14.73
2023-01-17T16:57:32.747Z,13.20
2023-01-17T16:59:59.695Z,16.43
2023-01-17T17:02:26.545Z,11.07
2023-01-17T17:04:53.419Z,12.87
2023-01-17T17:07:20.262Z,13.53
2023-01-17T17:09:47.809Z,12.60
2023-01-17T17:12:14.562Z,14.93
2023-01-17T17:14:41.453Z,10.43
2023-01-17T17:17:08.415Z,13.80
2023-01-17T17:19:35.284Z,15.20
2023-01-17T17:22:02.361Z,12.97
2023-01-17T17:24:29.181Z,12.90
2023-01-17T17:26:56.157Z,12.63
2023-01-17T17:29:22.955Z,13.37
2023-01-17T17:31:49.945Z,12.53
2023-01-17T17:34:16.760Z,13.67
2023-01-17T17:36:43.819Z,14.07
2023-01-17T17:39:12.657Z,15.57
2023-01-17T17:41:41.599Z,12.60
2023-01-17T17:44:08.508Z,15.57
2023-01-17T17:46:37.300Z,15.27
2023-01-17T17:49:06.019Z,17.93
2023-01-17T17:51:35.022Z,14.97
2023-01-17T17:54:03.277Z,13.87
2023-01-17T17:56:31.091Z,17.97
2023-01-17T17:58:58.370Z,14.20
2023-01-17T18:01:25.577Z,16.50
2023-01-17T18:03:52.886Z,14.30
2023-01-17T18:06:20.347Z,15.47
2023-01-17T18:08:47.532Z,17.13
2023-01-17T18:11:18.171Z,23.53
2023-01-17T18:13:47.875Z,18.53
2023-01-17T18:16:15.724Z,19.13
2023-01-17T18:18:46.640Z,18.60
2023-01-17T18:21:15.256Z,17.33
2023-01-17T18:23:43.275Z,19.93
2023-01-17T18:26:21.124Z,20.67
2023-01-17T18:28:48.138Z,18.97
2023-01-17T18:31:14.962Z,19.67
2023-01-17T18:33:41.899Z,20.23
2023-01-17T18:36:09.932Z,21.30
2023-01-17T18:38:41.168Z,20.53
2023-01-17T18:41:09.572Z,21.83
2023-01-17T18:43:36.652Z,25.57
2023-01-17T18:46:03.806Z,21.23
2023-01-17T18:48:30.992Z,27.07
2023-01-17T18:51:02.056Z,26.10
2023-01-17T18:53:30.207Z,25.67
2023-01-17T18:55:58.017Z,51.37
2023-01-17T18:58:25.431Z,39.30
2023-01-17T19:00:52.788Z,43.50
2023-01-17T19:03:20.387Z,37.03
2023-01-17T19:05:48.444Z,56.03
2023-01-17T19:08:16.140Z,45.63
2023-01-17T19:10:45.708Z,49.80
2023-01-17T19:13:12.552Z,48.37
2023-01-17T19:15:39.443Z,39.50
2023-01-17T19:18:06.388Z,40.43
2023-01-17T19:20:34.931Z,35.97
2023-01-17T19:23:02.419Z,38.33
2023-01-17T19:25:29.383Z,56.60
2023-01-17T19:27:57.071Z,54.77
2023-01-17T19:30:24.459Z,67.27
2023-01-17T19:32:51.770Z,60.57
2023-01-17T19:35:18.822Z,58.43
2023-01-17T19:37:46.519Z,58.53
2023-01-17T19:40:14.671Z,55.20
2023-01-17T19:42:41.915Z,70.17
2023-01-17T19:45:09.932Z,66.50
2023-01-17T19:47:37.036Z,52.33
2023-01-17T19:50:05.028Z,48.47
2023-01-17T19:52:31.928Z,54.03
2023-01-17T19:54:58.744Z,47.37
2023-01-17T19:57:28.347Z,49.30
2023-01-17T19:59:55.987Z,43.47
2023-01-17T20:02:22.848Z,45.63
2023-01-17T20:04:49.878Z,46.60
2023-01-17T20:07:16.826Z,43.77
2023-01-17T20:09:43.705Z,50.00
2023-01-17T20:12:11.168Z,63.07
2023-01-17T20:14:37.955Z,67.50
2023-01-17T20:17:04.816Z,69.23
2023-01-17T20:19:31.635Z,72.10
2023-01-17T20:21:58.495Z,64.20
2023-01-17T20:24:25.219Z,59.20
2023-01-17T20:26:52.107Z,61.20
2023-01-17T20:29:19.726Z,52.20
2023-01-17T20:31:52.593Z,56.53
2023-01-17T20:34:19.803Z,59.70
2023-01-17T20:36:46.888Z,65.27
2023-01-17T20:39:15.038Z,52.50
2023-01-17T20:41:43.143Z,61.20
2023-01-17T20:44:11.489Z,63.50
2023-01-17T20:46:41.306Z,54.60
2023-01-17T20:49:10.467Z,57.33
2023-01-17T20:51:40.412Z,60.83
2023-01-17T20:54:08.930Z,54.10
2023-01-17T20:56:37.310Z,61.17
2023-01-17T20:59:08.103Z,62.13
2023-01-17T21:01:35.696Z,53.17
2023-01-17T21:04:03.330Z,57.70
2023-01-17T21:06:31.022Z,55.17
2023-01-17T21:08:58.527Z,60.30
2023-01-17T21:11:25.975Z,74.07
2023-01-17T21:13:53.970Z,66.27
2023-01-17T21:16:23.095Z,64.60
2023-01-17T21:18:51.200Z,60.30
2023-01-17T21:21:19.322Z,68.03
2023-01-17T21:23:46.101Z,61.83
2023-01-17T21:26:13.729Z,66.87
2023-01-17T21:28:43.358Z,61.67
2023-01-17T21:31:40.995Z,68.37
2023-01-17T21:34:08.965Z,63.30
2023-01-17T21:36:36.924Z,66.87
2023-01-17T21:39:05.397Z,73.70
2023-01-17T21:41:33.736Z,69.80
2023-01-17T21:44:02.410Z,72.47
2023-01-17T21:46:29.560Z,69.37
2023-01-17T21:48:59.574Z,66.20
2023-01-17T21:51:46.466Z,58.07
2023-01-17T21:54:13.525Z,56.00
2023-01-17T21:56:58.572Z,61.87
2023-01-17T21:59:25.563Z,61.83
2023-01-17T22:01:52.406Z,63.33
2023-01-17T22:04:19.399Z,63.97
2023-01-17T22:06:46.800Z,64.80
2023-01-17T22:09:15.267Z,63.87
2023-01-17T22:11:42.063Z,61.77
2023-01-17T22:14:08.996Z,63.90
2023-01-17T22:16:36.250Z,57.77
2023-01-17T22:19:03.172Z,65.27
2023-01-17T22:21:30.511Z,62.77
2023-01-17T22:23:59.393Z,69.33
2023-01-17T22:26:28.948Z,80.77
2023-01-17T22:28:57.011Z,68.53
2023-01-17T22:31:26.309Z,60.73
2023-01-17T22:34:03.014Z,58.00
2023-01-17T22:36:31.906Z,61.63
2023-01-17T22:38:59.749Z,55.37
2023-01-17T22:41:29.923Z,55.87
2023-01-17T22:43:58.936Z,57.93
2023-01-17T22:46:26.903Z,51.70
2023-01-17T22:48:54.687Z,54.23
2023-01-17T22:51:22.821Z,56.50
2023-01-17T22:53:51.282Z,54.63
2023-01-17T22:56:20.564Z,61.43
2023-01-17T22:58:49.275Z,55.30
2023-01-17T23:01:18.057Z,61.53
2023-01-17T23:03:46.419Z,60.00
2023-01-17T23:06:15.843Z,55.93
2023-01-17T23:08:45.303Z,60.50
2023-01-17T23:11:39.449Z,66.90
2023-01-17T23:14:17.452Z,60.63
2023-01-17T23:17:09.242Z,60.60
2023-01-17T23:19:37.936Z,62.97
2023-01-17T23:22:21.433Z,64.83
2023-01-17T23:24:48.548Z,58.57
2023-01-17T23:27:36.323Z,67.77
2023-01-17T23:30:05.474Z,66.00
2023-01-17T23:32:32.229Z,60.17
2023-01-17T23:34:59.716Z,62.13
2023-01-17T23:37:47.430Z,54.50
2023-01-17T23:40:15.130Z,60.63
2023-01-17T23:43:00.871Z,60.07
2023-01-17T23:45:28.351Z,56.70
2023-01-17T23:47:55.487Z,54.87
2023-01-17T23:50:22.483Z,57.00
2023-01-17T23:52:49.434Z,60.73
2023-01-17T23:55:16.561Z,53.33
2023-01-17T23:57:44.354Z,51.83
